Aérodrome :
LOGIN :

S'inscrire | Disclaimer

   EN    FR    IT 

 










Légende :    VFR   VFR Marginal   IFR   IFR Intensif   IFR Très Intensif
Visi : 
Plafond : 
>= 8 km
>= 3000ft
5 à 8 km
1000 à 3000 ft
1500m à 5 km
500 à 1000 ft
800 à 1500m
200 à 500 ft
< 800m
< 200 ft
Symboles :   Orages  Brouillard  Fortes neiges  Fortes précipitations  Vent > 20 kt
SIGMETs :   Divers  Orages  Givrage  Turbulence  Onde Orograph.  Cendres Volcan.







- Altitude de l'aérodrome : 587 ft
- Code IATA : XCR
- Voir les cartes d'approche


LFOK - Chalons Vatry

DERNIER METAR :
  • 291100Z AUTO 03005KT 360V100 9999 SCT046 13/02 Q1017 NOSIG

METARs EXPIRÉS :
  • 291030Z AUTO VRB05KT CAVOK 13/03 Q1017 NOSIG
  • 291000Z AUTO 10007KT 070V140 CAVOK 13/02 Q1018 NOSIG
  • 290930Z AUTO 09007KT CAVOK 12/03 Q1018 NOSIG
  • 290900Z AUTO 08008KT 050V120 9000 NSC 11/03 Q1018 NOSIG
  • 290830Z AUTO 08007KT 050V120 9000 NSC 11/05 Q1018 NOSIG

TAF TAF LFOK
Valide du 29 à 06h jusqu'au 30 à 06h UTC


290500Z 2906/3006 VRB02KT 2000 BR SCT040
PROB40 2906/2907 0300 FG VV///
BECMG 2907/2910 9999 NSW
BECMG 2914/2916 10010KT
Pas de NOTAMs connus pour ce terrain.



MET'MAP, la Météo Aéronautique d'un coup d'oeil ! - Copyright ORBIFLY Décembre 2007 - Disclaimer

ORBIFLY MET'MAP TEAM :

Programmation & Développement : Alexandra Zaïnal
Conception & Développement : Baudouin d'Aumeries
Co-Programmation & Développement : Marc-Olivier Méhu
Soutien technique & logistique : Manuel Goepfert

Contact : metmap@orbifly.com




SOURCES & CREDITS :

   NOAA